»·PEaware :: UAL726 KSFO-KEWR

UAL726 :: KSFO-KEWR

FLIGHT INFORMATION

Flight Status: Arrived
Operator:
United Airlines
More flights by this operator :: More flights under this callsign
Pilot: Thomas C. (28508)
Aircraft: BOEING 777-200
(B772)
More flights by this aircraft type
Origin: KSFO San Francisco Intl
United States
Destination: KEWR Newark Intl
United States
More flights between these airports :: More routes between these airports
Route: TRUKN2 TIPRE Q126 GAROT EKR OBH J144 DSM EVOTE NELLS KEEHO J584 SLT FQM3
File this flight plan on PilotEdge
Remarks: PBN / A1B1C1D1L1O1S2 NAV / RNVD1E2A1 DOF / 200322 REG / N783UA EET / KZLC0030 KZDV0111 KZMP0151 KZOB0319 CZYZ0329 KZNY0353 KZAU0455 SEL / ARBP OPR / UAL PER / D RMK / TCAS
Altitude:
(Current/Filed)
41,000ft
Speed:
(Current/Filed)
476kts
Departed: 21-Mar-20 04:41 PM
Arrived: 21-Mar-20 09:05 PM
Distance/Time
Traveled:
2222nm/4:24
Distance/Time
To Go:
Arrived

Flight Plot

Page will automatically refresh every two minutes.

Flight plan parsing failed; only flown route is shown


Map Options




Map Legend


Flown Route
Filed Route
Departure Airport
Arrival Airport
Navaid (VOR, NDB)
Fix

Horizontal Profiles

Position Reports

Time Latitude Longitude Heading Altitude Ground
Speed
21-Mar-20 16:01 37.621144 -122.390806 118 26ft 0kts
21-Mar-20 16:02 37.621144 -122.390806 118 26ft 0kts
21-Mar-20 16:03 37.621144 -122.390806 118 26ft 0kts
21-Mar-20 16:04 37.621144 -122.390806 118 26ft 0kts
21-Mar-20 16:05 37.621144 -122.390806 118 26ft 0kts
21-Mar-20 16:06 37.621144 -122.390806 118 26ft 0kts
21-Mar-20 16:07 37.621144 -122.390806 118 26ft 0kts
21-Mar-20 16:08 37.621144 -122.390806 118 26ft 0kts
21-Mar-20 16:09 37.621144 -122.390806 118 26ft 0kts
21-Mar-20 16:10 37.621144 -122.390806 118 26ft 0kts
21-Mar-20 16:11 37.621144 -122.390806 118 26ft 0kts
21-Mar-20 16:12 37.621144 -122.390806 118 26ft 0kts
21-Mar-20 16:13 37.621144 -122.390806 118 26ft 0kts
21-Mar-20 16:14 37.621144 -122.390806 118 26ft 0kts
21-Mar-20 16:15 37.621144 -122.390806 118 27ft 0kts
21-Mar-20 16:16 37.621144 -122.390806 118 26ft 0kts
21-Mar-20 16:17 37.621144 -122.390806 118 26ft 0kts
21-Mar-20 16:18 37.621144 -122.390806 118 26ft 0kts
21-Mar-20 16:19 37.621144 -122.390806 118 26ft 0kts
21-Mar-20 16:20 37.621144 -122.390806 118 26ft 0kts
21-Mar-20 16:21 37.621144 -122.390806 118 26ft 0kts
21-Mar-20 16:22 37.621144 -122.390806 118 26ft 0kts
21-Mar-20 16:23 37.621144 -122.390806 118 26ft 0kts
21-Mar-20 16:24 37.621144 -122.390806 118 26ft 0kts
21-Mar-20 16:25 37.621144 -122.390806 118 26ft 0kts
21-Mar-20 16:26 37.621144 -122.390806 118 26ft 0kts
21-Mar-20 16:27 37.621144 -122.390806 118 26ft 0kts
21-Mar-20 16:28 37.621340 -122.391276 118 26ft 1kts
21-Mar-20 16:29 37.621224 -122.391738 26 26ft 0kts
21-Mar-20 16:30 37.621225 -122.391738 26 26ft 0kts
21-Mar-20 16:31 37.621270 -122.391707 28 26ft 4kts
21-Mar-20 16:32 37.622443 -122.388653 118 26ft 15kts
21-Mar-20 16:33 37.619804 -122.382355 117 26ft 23kts
21-Mar-20 16:34 37.616005 -122.380051 207 26ft 20kts
21-Mar-20 16:35 37.610412 -122.383768 211 26ft 15kts
21-Mar-20 16:36 37.606328 -122.384126 132 26ft 9kts
21-Mar-20 16:37 37.606792 -122.382205 61 26ft 0kts
21-Mar-20 16:38 37.606792 -122.382205 61 26ft 0kts
21-Mar-20 16:39 37.606998 -122.380610 31 26ft 12kts
21-Mar-20 16:40 37.633660 -122.358325 51 1225ft 182kts
21-Mar-20 16:41 37.675080 -122.291878 53 5009ft 270kts
21-Mar-20 16:42 37.718846 -122.211739 58 9796ft 291kts
21-Mar-20 16:43 37.768849 -122.115502 57 13290ft 354kts
21-Mar-20 16:44 37.824506 -122.007390 59 17462ft 381kts
21-Mar-20 16:45 37.874072 -121.883979 62 20183ft 408kts
21-Mar-20 16:46 37.925616 -121.753716 61 23701ft 426kts
21-Mar-20 16:47 37.980084 -121.615495 61 26611ft 451kts
21-Mar-20 16:48 38.037644 -121.468762 61 29154ft 476kts
21-Mar-20 16:49 38.097935 -121.314258 61 31404ft 502kts
21-Mar-20 16:50 38.161322 -121.151001 61 33539ft 530kts
21-Mar-20 16:51 38.214286 -120.972651 78 36062ft 545kts
21-Mar-20 16:52 38.241554 -120.784605 78 38684ft 543kts
21-Mar-20 16:53 38.268036 -120.596018 78 40952ft 537kts
21-Mar-20 16:54 38.293846 -120.409790 78 41135ft 534kts
21-Mar-20 16:55 38.319288 -120.223971 79 41153ft 535kts
21-Mar-20 16:56 38.344501 -120.037529 79 41155ft 535kts
21-Mar-20 16:57 38.369520 -119.850229 79 41077ft 535kts
21-Mar-20 16:58 38.394217 -119.662967 79 41078ft 535kts
21-Mar-20 16:59 38.418652 -119.475277 79 41080ft 534kts
21-Mar-20 17:00 38.442790 -119.287554 80 41071ft 534kts
21-Mar-20 17:01 38.466505 -119.100509 80 41074ft 534kts
21-Mar-20 17:02 38.490015 -118.912677 80 41076ft 533kts
21-Mar-20 17:03 38.513203 -118.724902 80 41078ft 533kts
21-Mar-20 17:04 38.535925 -118.538379 80 41107ft 533kts
21-Mar-20 17:05 38.558051 -118.354246 80 41109ft 532kts
21-Mar-20 17:06 38.579493 -118.173375 81 41107ft 532kts
21-Mar-20 17:07 38.601294 -117.986894 81 41128ft 532kts
21-Mar-20 17:08 38.622863 -117.799743 81 41104ft 532kts
21-Mar-20 17:09 38.644220 -117.611704 81 41133ft 531kts
21-Mar-20 17:10 38.665133 -117.424851 81 41135ft 531kts
21-Mar-20 17:11 38.688831 -117.240487 76 41130ft 530kts
21-Mar-20 17:12 38.720472 -117.056407 76 41128ft 530kts
21-Mar-20 17:13 38.751615 -116.872187 76 41130ft 530kts
21-Mar-20 17:14 38.782501 -116.687577 76 41132ft 530kts
21-Mar-20 17:15 38.813066 -116.502988 76 41107ft 529kts
21-Mar-20 17:16 38.843146 -116.319479 77 41100ft 529kts
21-Mar-20 17:17 38.873003 -116.135362 77 41101ft 529kts
21-Mar-20 17:18 38.902723 -115.950118 77 41103ft 529kts
21-Mar-20 17:19 38.932045 -115.765360 77 41105ft 528kts
21-Mar-20 17:20 38.961002 -115.580924 77 41106ft 528kts
21-Mar-20 17:21 38.989843 -115.395209 77 41108ft 528kts
21-Mar-20 17:22 39.017719 -115.213764 78 41101ft 528kts
21-Mar-20 17:23 39.045968 -115.027802 78 41102ft 527kts
21-Mar-20 17:24 39.073732 -114.842967 78 41104ft 527kts
21-Mar-20 17:25 39.101021 -114.659200 78 41106ft 527kts
21-Mar-20 17:26 39.128296 -114.473424 78 41106ft 527kts
21-Mar-20 17:28 39.155217 -114.287911 79 41098ft 526kts
21-Mar-20 17:29 39.181776 -114.102633 79 41100ft 526kts
21-Mar-20 17:30 39.208075 -113.917034 79 41102ft 526kts
21-Mar-20 17:31 39.234027 -113.731674 79 41104ft 526kts
21-Mar-20 17:32 39.259733 -113.545833 79 41106ft 526kts
21-Mar-20 17:33 39.285027 -113.360707 79 41107ft 525kts
21-Mar-20 17:34 39.312551 -113.175502 77 41100ft 525kts
21-Mar-20 17:35 39.343427 -112.990776 77 41101ft 525kts
21-Mar-20 17:36 39.373886 -112.806674 77 41103ft 525kts
21-Mar-20 17:37 39.404042 -112.622487 77 41105ft 525kts
21-Mar-20 17:38 39.433965 -112.437781 77 41133ft 524kts
21-Mar-20 17:39 39.463590 -112.252965 78 41127ft 524kts
21-Mar-20 17:40 39.492811 -112.068671 78 41128ft 524kts
21-Mar-20 17:41 39.521898 -111.883234 78 41129ft 524kts
21-Mar-20 17:42 39.550482 -111.698986 78 41131ft 524kts
21-Mar-20 17:43 39.578902 -111.513753 78 41133ft 524kts
21-Mar-20 17:44 39.607075 -111.328077 78 41129ft 523kts
21-Mar-20 17:45 39.634904 -111.142540 79 41101ft 523kts
21-Mar-20 17:46 39.662388 -110.957202 79 41102ft 523kts
21-Mar-20 17:47 39.689512 -110.772166 79 41104ft 523kts
21-Mar-20 17:47 39.711971 -110.617299 79 41105ft 523kts
21-Mar-20 17:49 39.742992 -110.400859 79 41107ft 523kts
21-Mar-20 17:50 39.769105 -110.216349 79 41103ft 523kts
21-Mar-20 17:50 39.790796 -110.061296 79 41102ft 523kts
21-Mar-20 17:51 39.816520 -109.875348 79 41077ft 522kts
21-Mar-20 17:53 39.846103 -109.658720 79 41078ft 522kts
21-Mar-20 17:53 39.866977 -109.503902 79 41079ft 522kts
21-Mar-20 17:54 39.891563 -109.319483 80 41102ft 523kts
21-Mar-20 17:55 39.916136 -109.132753 80 41101ft 522kts
21-Mar-20 17:56 39.940355 -108.946315 80 41103ft 522kts
21-Mar-20 17:57 39.964334 -108.759283 80 41105ft 522kts
21-Mar-20 17:58 39.987908 -108.572944 80 41106ft 523kts
21-Mar-20 17:59 40.011291 -108.385615 80 41108ft 523kts
21-Mar-20 18:00 40.033951 -108.201654 81 41101ft 523kts
21-Mar-20 18:01 40.056680 -108.014527 81 41103ft 522kts
21-Mar-20 18:02 40.084863 -107.828317 76 41105ft 523kts
21-Mar-20 18:03 40.118136 -107.643232 76 41104ft 522kts
21-Mar-20 18:04 40.150957 -107.458578 76 41105ft 523kts
21-Mar-20 18:05 40.183272 -107.274946 77 41125ft 523kts
21-Mar-20 18:06 40.215594 -107.089367 77 41127ft 523kts
21-Mar-20 18:07 40.247561 -106.903990 77 41102ft 523kts
21-Mar-20 18:08 40.279292 -106.718089 77 41132ft 523kts
21-Mar-20 18:09 40.310709 -106.532103 77 41132ft 523kts
21-Mar-20 18:10 40.341745 -106.346450 78 41133ft 523kts
21-Mar-20 18:11 40.372761 -106.158928 78 41127ft 523kts
21-Mar-20 18:12 40.403228 -105.972755 78 41129ft 523kts
21-Mar-20 18:13 40.433472 -105.785945 78 41129ft 523kts
21-Mar-20 18:14 40.463398 -105.599072 78 41105ft 523kts
21-Mar-20 18:15 40.493012 -105.413807 80 41067ft 502kts
21-Mar-20 18:16 40.521521 -105.230009 79 41108ft 524kts
21-Mar-20 18:17 40.550583 -105.042549 79 41101ft 523kts
21-Mar-20 18:18 40.579366 -104.854644 79 41103ft 524kts
21-Mar-20 18:19 40.608102 -104.666177 79 41093ft 516kts
21-Mar-20 18:20 40.635969 -104.478627 79 41105ft 526kts
21-Mar-20 18:21 40.663883 -104.290053 79 41099ft 525kts
21-Mar-20 18:22 40.691588 -104.100466 79 41185ft 527kts
21-Mar-20 18:23 40.718934 -103.911126 79 41184ft 527kts
21-Mar-20 18:24 40.746056 -103.721027 79 41186ft 528kts
21-Mar-20 18:25 40.772838 -103.530965 79 41105ft 529kts
21-Mar-20 18:26 40.799378 -103.340252 80 41107ft 529kts
21-Mar-20 18:27 40.825729 -103.148488 80 40987ft 528kts
21-Mar-20 18:28 40.851704 -102.956975 80 41076ft 531kts
21-Mar-20 18:29 40.877388 -102.765124 80 41079ft 532kts
21-Mar-20 18:30 40.902790 -102.572843 80 41088ft 532kts
21-Mar-20 18:31 40.927977 -102.379612 80 41110ft 533kts
21-Mar-20 18:32 40.952875 -102.186007 81 41102ft 534kts
21-Mar-20 18:33 40.977486 -101.991918 81 41104ft 535kts
21-Mar-20 18:34 41.001737 -101.797965 81 41106ft 536kts
21-Mar-20 18:35 41.025761 -101.603063 81 41108ft 536kts
21-Mar-20 18:36 41.049410 -101.408409 81 41110ft 537kts
21-Mar-20 18:37 41.072868 -101.212528 81 41102ft 538kts
21-Mar-20 18:38 41.095953 -101.016781 81 41131ft 539kts
21-Mar-20 18:39 41.118554 -100.822247 81 41129ft 540kts
21-Mar-20 18:40 41.141092 -100.625250 81 41132ft 540kts
21-Mar-20 18:41 41.163296 -100.428106 81 41134ft 541kts
21-Mar-20 18:42 41.185220 -100.230313 82 41125ft 542kts
21-Mar-20 18:43 41.206816 -100.032263 82 41154ft 543kts
21-Mar-20 18:44 41.228110 -99.833756 82 41157ft 543kts
21-Mar-20 18:45 41.249106 -99.634714 82 41159ft 544kts
21-Mar-20 18:46 41.269743 -99.435713 82 41162ft 544kts
21-Mar-20 18:47 41.290125 -99.235695 83 41153ft 544kts
21-Mar-20 18:48 41.310071 -99.036426 83 41182ft 545kts
21-Mar-20 18:49 41.329672 -98.837095 83 41184ft 545kts
21-Mar-20 18:50 41.348984 -98.637053 83 41187ft 546kts
21-Mar-20 18:51 41.367952 -98.436879 83 41216ft 545kts
21-Mar-20 18:52 41.379470 -98.236887 88 41207ft 546kts
21-Mar-20 18:53 41.385963 -98.035730 89 41209ft 546kts
21-Mar-20 18:54 41.392014 -97.833553 89 41212ft 547kts
21-Mar-20 18:55 41.397716 -97.631088 88 41268ft 547kts
21-Mar-20 18:56 41.403059 -97.428774 88 41271ft 548kts
21-Mar-20 18:57 41.408058 -97.226002 89 41261ft 548kts
21-Mar-20 18:58 41.412700 -97.023100 89 41263ft 549kts
21-Mar-20 18:59 41.416986 -96.820221 89 41293ft 549kts
21-Mar-20 19:00 41.420924 -96.616885 89 41296ft 550kts
21-Mar-20 19:01 41.424511 -96.413135 89 41299ft 550kts
21-Mar-20 19:02 41.427745 -96.208939 90 41288ft 550kts
21-Mar-20 19:03 41.430609 -96.005210 90 41291ft 551kts
21-Mar-20 19:04 41.433117 -95.801329 90 41320ft 552kts
21-Mar-20 19:05 41.435274 -95.596544 90 41323ft 552kts
21-Mar-20 19:06 41.437063 -95.392295 90 41326ft 553kts
21-Mar-20 19:07 41.438497 -95.187163 91 41315ft 553kts
21-Mar-20 19:08 41.439561 -94.982628 91 41318ft 553kts
21-Mar-20 19:09 41.440265 -94.778025 91 41321ft 554kts
21-Mar-20 19:10 41.440607 -94.572549 91 41330ft 554kts
21-Mar-20 19:11 41.440584 -94.367127 91 41354ft 555kts
21-Mar-20 19:12 41.440194 -94.161317 91 41356ft 555kts
21-Mar-20 19:13 41.439438 -93.955725 91 41372ft 556kts
21-Mar-20 19:14 41.438317 -93.750270 91 41375ft 555kts
21-Mar-20 19:15 41.446786 -93.544603 80 41385ft 558kts
21-Mar-20 19:16 41.467467 -93.340189 83 41404ft 558kts
21-Mar-20 19:17 41.486947 -93.134298 83 41397ft 558kts
21-Mar-20 19:18 41.505929 -92.929508 83 41428ft 559kts
21-Mar-20 19:19 41.524683 -92.723100 83 41430ft 559kts
21-Mar-20 19:20 41.543005 -92.517283 83 41433ft 559kts
21-Mar-20 19:21 41.561035 -92.310624 83 41421ft 560kts
21-Mar-20 19:22 41.578615 -92.104515 83 41481ft 560kts
21-Mar-20 19:23 41.595876 -91.897833 83 41482ft 560kts
21-Mar-20 19:24 41.612769 -91.691024 83 41458ft 561kts
21-Mar-20 19:25 41.629306 -91.483899 83 41488ft 561kts
21-Mar-20 19:26 41.645578 -91.275488 84 41475ft 561kts
21-Mar-20 19:27 41.661335 -91.068435 84 41479ft 562kts
21-Mar-20 19:28 41.676774 -90.860733 84 41509ft 562kts
21-Mar-20 19:29 41.691873 -90.652446 84 41513ft 563kts
21-Mar-20 19:30 41.706608 -90.443899 84 41516ft 563kts
21-Mar-20 19:31 41.720965 -90.235347 85 41504ft 563kts
21-Mar-20 19:32 41.734935 -90.026707 85 41507ft 564kts
21-Mar-20 19:33 41.748597 -89.816926 84 41510ft 564kts
21-Mar-20 19:35 41.761836 -89.607736 84 41514ft 564kts
21-Mar-20 19:36 41.774674 -89.399255 85 41517ft 564kts
21-Mar-20 19:37 41.787202 -89.188751 85 41532ft 564kts
21-Mar-20 19:38 41.799312 -88.979081 85 41535ft 565kts
21-Mar-20 19:39 41.811080 -88.768654 85 41538ft 565kts
21-Mar-20 19:40 41.822415 -88.559073 85 41542ft 565kts
21-Mar-20 19:41 41.833337 -88.350028 85 41545ft 566kts
21-Mar-20 19:42 41.843948 -88.139642 86 41555ft 566kts
21-Mar-20 19:43 41.854249 -87.927505 86 41563ft 566kts
21-Mar-20 19:44 41.864141 -87.715704 86 41567ft 567kts
21-Mar-20 19:45 41.873765 -87.501129 86 41570ft 567kts
21-Mar-20 19:46 41.882888 -87.289349 86 41555ft 567kts
21-Mar-20 19:47 41.891588 -87.077482 86 41560ft 568kts
21-Mar-20 19:48 41.899931 -86.865105 86 41564ft 568kts
21-Mar-20 19:49 41.907856 -86.653400 86 41567ft 569kts
21-Mar-20 19:50 41.915409 -86.441176 86 41571ft 569kts
21-Mar-20 19:50 41.921407 -86.264648 87 41557ft 569kts
21-Mar-20 19:52 41.929348 -86.016501 87 41561ft 570kts
21-Mar-20 19:53 41.935717 -85.804480 87 41565ft 570kts
21-Mar-20 19:53 41.940754 -85.626786 87 41568ft 570kts
21-Mar-20 19:54 41.946434 -85.413591 87 41570ft 569kts
21-Mar-20 19:56 41.950773 -85.166376 90 41559ft 571kts
21-Mar-20 19:57 41.950187 -84.952726 90 41562ft 571kts
21-Mar-20 19:57 41.949310 -84.774959 90 41561ft 572kts
21-Mar-20 19:58 41.947892 -84.561188 90 41542ft 572kts
21-Mar-20 19:59 41.946085 -84.348259 91 41583ft 572kts
21-Mar-20 20:00 41.943876 -84.134154 91 41586ft 572kts
21-Mar-20 20:01 41.941265 -83.920094 91 41561ft 572kts
21-Mar-20 20:02 41.938266 -83.706770 91 41593ft 572kts
21-Mar-20 20:03 41.934915 -83.493319 90 41598ft 572kts
21-Mar-20 20:04 41.934045 -83.279501 90 41581ft 573kts
21-Mar-20 20:05 41.932748 -83.065360 90 41340ft 574kts
21-Mar-20 20:06 41.931063 -82.850828 90 40998ft 574kts
21-Mar-20 20:07 41.928986 -82.637001 90 41000ft 575kts
21-Mar-20 20:08 41.926498 -82.422025 90 41004ft 576kts
21-Mar-20 20:09 41.923613 -82.206794 91 40990ft 576kts
21-Mar-20 20:10 41.920334 -81.992674 91 41471ft 574kts
21-Mar-20 20:11 41.912761 -81.778686 97 41595ft 575kts
21-Mar-20 20:12 41.894051 -81.565431 97 41596ft 575kts
21-Mar-20 20:13 41.874744 -81.352750 97 41600ft 576kts
21-Mar-20 20:14 41.854968 -81.139353 98 41561ft 576kts
21-Mar-20 20:15 41.834845 -80.926650 98 41562ft 577kts
21-Mar-20 20:16 41.814268 -80.713435 98 41566ft 576kts
21-Mar-20 20:17 41.793336 -80.500802 97 41520ft 578kts
21-Mar-20 20:18 41.771896 -80.286970 98 41499ft 578kts
21-Mar-20 20:19 41.750134 -80.074397 98 41505ft 578kts
21-Mar-20 20:20 41.727931 -79.861288 98 41509ft 579kts
21-Mar-20 20:21 41.705254 -79.647605 98 41513ft 579kts
21-Mar-20 20:22 41.682301 -79.435178 98 41517ft 578kts
21-Mar-20 20:23 41.658934 -79.222637 99 41503ft 577kts
21-Mar-20 20:24 41.635059 -79.009459 99 41452ft 579kts
21-Mar-20 20:25 41.610872 -78.797130 99 41457ft 579kts
21-Mar-20 20:26 41.586296 -78.584965 99 41488ft 579kts
21-Mar-20 20:27 41.561232 -78.372134 99 41492ft 579kts
21-Mar-20 20:28 41.536274 -78.163583 100 41476ft 578kts
21-Mar-20 20:29 41.510371 -77.952389 101 41482ft 578kts
21-Mar-20 20:30 41.480453 -77.741365 102 41194ft 581kts
21-Mar-20 20:31 41.450227 -77.530458 102 38606ft 578kts
21-Mar-20 20:32 41.419926 -77.321642 103 36045ft 575kts
21-Mar-20 20:33 41.389299 -77.113629 103 33391ft 569kts
21-Mar-20 20:34 41.358735 -76.908691 103 30823ft 560kts
21-Mar-20 20:35 41.321209 -76.710534 112 28278ft 544kts
21-Mar-20 20:36 41.271180 -76.522739 113 25798ft 532kts
21-Mar-20 20:37 41.221733 -76.339317 113 23308ft 519kts
21-Mar-20 20:38 41.173391 -76.161307 113 20880ft 501kts
21-Mar-20 20:39 41.127337 -75.992775 113 18643ft 455kts
21-Mar-20 20:40 41.086744 -75.845662 113 16465ft 411kts
21-Mar-20 20:41 41.047561 -75.704266 112 14597ft 402kts
21-Mar-20 20:42 41.009507 -75.567455 112 12964ft 384kts
21-Mar-20 20:43 40.974819 -75.443345 112 12835ft 349kts
21-Mar-20 20:44 40.940708 -75.321957 113 11246ft 348kts
21-Mar-20 20:45 40.908874 -75.209117 113 10183ft 305kts
21-Mar-20 20:46 40.879572 -75.106471 112 9236ft 297kts
21-Mar-20 20:47 40.850892 -75.005018 109 8008ft 295kts
21-Mar-20 20:48 40.818945 -74.906742 126 6992ft 278kts
21-Mar-20 20:49 40.770046 -74.830725 131 7000ft 273kts
21-Mar-20 20:50 40.720329 -74.755359 131 6985ft 272kts
21-Mar-20 20:51 40.670132 -74.680027 131 6819ft 276kts
21-Mar-20 20:52 40.620759 -74.605218 131 5879ft 266kts
21-Mar-20 20:53 40.574723 -74.536136 131 5559ft 230kts
21-Mar-20 20:54 40.538407 -74.480634 130 4849ft 178kts
21-Mar-20 20:55 40.506650 -74.433052 128 3776ft 172kts
21-Mar-20 20:56 40.488839 -74.380294 66 2797ft 158kts
21-Mar-20 20:57 40.503379 -74.326796 68 2770ft 155kts
21-Mar-20 20:58 40.519799 -74.274873 32 2461ft 155kts
21-Mar-20 20:59 40.557767 -74.250257 26 1758ft 150kts
21-Mar-20 21:00 40.594282 -74.226705 27 1676ft 125kts
21-Mar-20 21:01 40.625988 -74.207071 26 1238ft 127kts
21-Mar-20 21:02 40.656689 -74.187569 24 586ft 117kts
21-Mar-20 21:03 40.686169 -74.168744 25 37ft 105kts
21-Mar-20 21:04 40.695729 -74.164664 346 36ft 10kts
21-Mar-20 21:05 40.696477 -74.168749 229 36ft 10kts
21-Mar-20 21:06 40.693184 -74.170908 205 36ft 22kts

Navigation Log

Ident Type
Flight plan parsing failed, navigation log unavailable